Time;durP1;ratioP1;P1;durP2;ratioP2;P2;SDS_P1;SDS_P2;PMS_P1;PMS_P2;Temp;Humidity;BMP_temperature;BMP_pressure;BME280_temperature;BME280_humidity;BME280_pressure;Samples;Min_cycle;Max_cycle;Signal;HPM_P1;HPM_P2
2021/12/28 00:00:00;;;;;;;;;1.00;1.00;;;;;10.85;85.57;98994.38;5035933;28;45364;-51
2021/12/28 00:02:25;;;;;;;;;2.33;2.00;;;;;10.85;86.13;98983.75;5038392;28;45417;-53
2021/12/28 00:04:50;;;;;;;;;1.33;0.67;;;;;10.83;85.59;98975.13;5040060;28;45437;-53
2021/12/28 00:07:17;;;;;;;;;2.67;1.00;;;;;10.81;85.84;98972.66;5039424;28;46027;-51
2021/12/28 00:09:42;;;;;;;;;1.00;1.00;;;;;10.76;87.08;98963.63;5039594;28;45176;-51
2021/12/28 00:12:08;;;;;;;;;2.00;1.00;;;;;10.76;87.21;98964.44;5039315;28;45160;-52
2021/12/28 00:14:37;;;;;;;;;1.00;1.00;;;;;10.76;87.16;98958.31;5039676;28;45161;-51
2021/12/28 00:19:48;;;;;;;;;2.00;1.00;;;;;10.81;86.96;98951.38;5039495;28;45243;-51
2021/12/28 00:22:14;;;;;;;;;3.00;2.00;;;;;10.82;87.30;98950.34;5039316;28;45509;-51
2021/12/28 00:24:40;;;;;;;;;3.00;1.00;;;;;10.81;87.38;98942.59;5039684;28;45346;-51
2021/12/28 00:27:05;;;;;;;;;0.67;0.67;;;;;10.83;86.95;98940.53;5038998;28;47266;-52
2021/12/28 00:29:31;;;;;;;;;3.00;2.00;;;;;10.79;86.55;98945.44;5039225;28;45241;-51
2021/12/28 00:31:57;;;;;;;;;1.00;0.33;;;;;10.79;87.29;98950.75;5039707;28;45332;-51
2021/12/28 00:34:22;;;;;;;;;0.00;0.00;;;;;10.83;86.97;98945.84;5039326;28;45421;-52
2021/12/28 00:36:47;;;;;;;;;2.00;2.00;;;;;10.85;86.47;98935.88;5039159;28;45598;-52
2021/12/28 00:39:13;;;;;;;;;0.67;0.67;;;;;10.87;86.77;98947.97;5039137;28;45260;-49
2021/12/28 00:41:39;;;;;;;;;2.00;0.67;;;;;10.82;86.68;98928.25;5037773;28;45629;-52
2021/12/28 00:44:04;;;;;;;;;5.00;1.00;;;;;10.72;86.93;98913.47;5039318;28;45439;-52
2021/12/28 00:46:30;;;;;;;;;1.67;1.00;;;;;10.87;86.88;98926.69;5038971;28;46747;-50
2021/12/28 00:48:55;;;;;;;;;3.00;2.00;;;;;10.86;86.75;98927.69;5039100;28;45402;-50
2021/12/28 00:51:20;;;;;;;;;2.67;1.00;;;;;10.84;87.08;98932.38;5038567;28;45846;-53
2021/12/28 00:53:46;;;;;;;;;0.67;0.67;;;;;10.86;87.14;98924.19;5039232;28;45309;-53
2021/12/28 00:56:11;;;;;;;;;1.00;1.00;;;;;10.86;86.41;98929.53;5039059;28;46126;-51
2021/12/28 00:58:37;;;;;;;;;0.67;0.67;;;;;10.81;86.28;98932.75;5039001;28;45359;-49
2021/12/28 01:01:03;;;;;;;;;0.67;0.33;;;;;10.86;86.18;98948.97;5039312;28;45343;-53
2021/12/28 01:03:29;;;;;;;;;1.00;0.00;;;;;10.87;86.37;98941.81;5039417;28;45423;-52
2021/12/28 01:05:55;;;;;;;;;0.33;0.33;;;;;10.87;86.88;98947.97;5038910;28;47126;-52
2021/12/28 01:08:20;;;;;;;;;0.33;0.33;;;;;10.87;86.40;98936.47;5038790;28;45378;-50
2021/12/28 01:10:50;;;;;;;;;1.00;1.00;;;;;10.89;86.13;98942.44;5038879;28;45294;-52
2021/12/28 01:13:16;;;;;;;;;3.00;2.00;;;;;10.91;86.97;98948.38;5038625;28;45326;-53
2021/12/28 01:15:42;;;;;;;;;1.00;1.00;;;;;10.93;87.04;98949.03;5038729;28;47189;-52
2021/12/28 01:18:08;;;;;;;;;2.00;0.00;;;;;10.95;86.58;98946.97;5038307;28;45594;-53
2021/12/28 01:20:34;;;;;;;;;2.00;1.00;;;;;10.96;86.88;98960.13;5039174;28;45324;-55
2021/12/28 01:23:00;;;;;;;;;0.00;0.00;;;;;10.99;86.61;98959.72;5039135;28;45447;-53
2021/12/28 01:25:26;;;;;;;;;0.33;0.33;;;;;11.02;86.97;98950.53;5038544;28;47149;-54
2021/12/28 01:27:52;;;;;;;;;0.00;0.00;;;;;11.03;86.74;98946.03;5038114;28;45293;-53
2021/12/28 01:30:20;;;;;;;;;1.00;1.00;;;;;11.06;87.22;98951.78;5038337;28;45334;-53
2021/12/28 01:32:47;;;;;;;;;0.00;0.00;;;;;11.10;87.06;98946.91;5038794;28;45386;-52
2021/12/28 01:35:14;;;;;;;;;0.00;0.00;;;;;11.12;87.07;98947.53;5038404;28;46116;-51
2021/12/28 01:37:41;;;;;;;;;0.00;0.00;;;;;11.09;87.22;98942.59;5038565;28;45317;-50
2021/12/28 01:40:09;;;;;;;;;0.33;0.00;;;;;11.05;87.67;98941.34;5038735;28;45354;-50
2021/12/28 01:43:00;;;;;;;;;0.00;0.00;;;;;11.01;86.69;98951.56;5038499;28;45547;-52
2021/12/28 01:45:51;;;;;;;;;0.00;0.00;;;;;11.01;87.25;98959.53;5024222;28;47143;-52
2021/12/28 01:48:28;;;;;;;;;0.00;0.00;;;;;10.98;87.42;98955.41;4937803;28;45387;-52
2021/12/28 01:50:56;;;;;;;;;0.00;0.00;;;;;10.98;87.45;98950.09;4937947;28;45347;-49
2021/12/28 01:53:23;;;;;;;;;0.33;0.00;;;;;10.99;87.50;98956.22;4938060;28;45433;-52
2021/12/28 01:55:51;;;;;;;;;0.00;0.00;;;;;11.00;87.33;98968.53;4937775;28;46286;-50
2021/12/28 01:58:16;;;;;;;;;0.00;0.00;;;;;11.09;87.61;98971.88;4937610;28;45505;-52
2021/12/28 02:00:45;;;;;;;;;0.00;0.00;;;;;11.17;87.37;98977.06;4937889;28;45452;-51
2021/12/28 02:03:14;;;;;;;;;0.00;0.00;;;;;11.25;87.28;98982.22;4938027;28;45423;-50
2021/12/28 02:05:40;;;;;;;;;1.00;0.00;;;;;11.33;86.85;98994.56;4936686;28;45480;-54
2021/12/28 02:08:07;;;;;;;;;0.00;0.00;;;;;11.37;86.31;98990.47;4937680;28;45336;-51
2021/12/28 02:10:33;;;;;;;;;0.00;0.00;;;;;11.45;86.69;99003.66;4937778;28;45538;-53
2021/12/28 02:12:59;;;;;;;;;0.00;0.00;;;;;11.51;86.38;99013.53;4937423;28;45393;-52
2021/12/28 02:15:24;;;;;;;;;0.00;0.00;;;;;11.57;86.02;99020.72;4937151;28;46196;-52
2021/12/28 02:17:50;;;;;;;;;0.00;0.00;;;;;11.62;85.84;99028.13;4942037;28;45560;-53
2021/12/28 02:20:18;;;;;;;;;0.00;0.00;;;;;11.66;85.65;99029.38;4956987;28;45424;-53
2021/12/28 02:22:44;;;;;;;;;0.00;0.00;;;;;11.69;85.16;99032.50;4957004;28;45481;-50
2021/12/28 02:25:11;;;;;;;;;0.00;0.00;;;;;11.74;85.22;99038.03;4992980;28;45725;-52
2021/12/28 02:27:37;;;;;;;;;0.00;0.00;;;;;11.76;84.67;99050.38;5037462;28;45461;-50
2021/12/28 02:30:06;;;;;;;;;0.00;0.00;;;;;11.70;84.26;99031.47;5037644;28;45964;-51
2021/12/28 02:32:32;;;;;;;;;0.00;0.00;;;;;11.68;84.51;99048.69;5037929;28;45401;-52
2021/12/28 02:34:58;;;;;;;;;0.00;0.00;;;;;11.56;84.83;99053.72;5037366;28;46149;-51
2021/12/28 02:37:24;;;;;;;;;0.00;0.00;;;;;11.62;84.20;99055.59;5037375;28;45333;-53
2021/12/28 02:39:51;;;;;;;;;1.00;0.00;;;;;11.59;84.39;99063.16;5037595;28;45301;-52
2021/12/28 02:42:19;;;;;;;;;0.00;0.00;;;;;11.53;84.17;99064.75;5037592;28;45416;-52
2021/12/28 02:44:44;;;;;;;;;0.00;0.00;;;;;11.54;84.22;99078.88;5035967;28;46365;-52
2021/12/28 02:47:10;;;;;;;;;0.00;0.00;;;;;11.51;84.41;99076.63;5037471;28;45451;-53
2021/12/28 02:49:38;;;;;;;;;1.00;0.00;;;;;11.45;84.68;99072.88;5037321;28;45398;-52
2021/12/28 02:52:09;;;;;;;;;0.00;0.00;;;;;11.47;84.31;99087.66;5037836;28;45527;-52
2021/12/28 02:54:38;;;;;;;;;0.00;0.00;;;;;11.51;84.31;99092.59;5035876;28;47226;-52
2021/12/28 02:57:05;;;;;;;;;0.00;0.00;;;;;11.45;84.37;99100.31;5036734;28;45405;-51
2021/12/28 02:59:30;;;;;;;;;0.00;0.00;;;;;11.41;84.38;99115.03;5037203;28;45309;-52
2021/12/28 03:01:55;;;;;;;;;0.00;0.00;;;;;11.43;84.60;99125.50;5037425;28;45448;-53
2021/12/28 03:04:23;;;;;;;;;0.00;0.00;;;;;11.40;84.68;99124.03;5037191;28;45300;-53
2021/12/28 03:06:49;;;;;;;;;0.00;0.00;;;;;11.46;84.69;99133.09;5037012;28;45392;-50
2021/12/28 03:09:15;;;;;;;;;0.00;0.00;;;;;11.51;84.46;99136.03;5037169;28;45322;-50
2021/12/28 03:11:41;;;;;;;;;0.00;0.00;;;;;11.57;84.19;99126.44;5037311;28;45241;-52
2021/12/28 03:14:07;;;;;;;;;0.00;0.00;;;;;11.56;83.68;99135.44;5036879;28;46178;-52
2021/12/28 03:16:32;;;;;;;;;0.00;0.00;;;;;11.52;84.15;99128.84;5037054;28;45291;-50
2021/12/28 03:18:58;;;;;;;;;0.00;0.00;;;;;11.53;83.88;99135.81;5036963;28;45394;-53
2021/12/28 03:21:25;;;;;;;;;0.00;0.00;;;;;11.54;84.00;99140.13;5037269;28;45445;-52
2021/12/28 03:23:52;;;;;;;;;0.00;0.00;;;;;11.45;84.17;99132.28;5036593;28;45655;-52
2021/12/28 03:26:18;;;;;;;;;0.00;0.00;;;;;11.51;84.05;99143.19;5036711;28;45456;-51
2021/12/28 03:28:44;;;;;;;;;0.00;0.00;;;;;11.48;83.56;99149.72;5036729;28;45469;-51
2021/12/28 03:31:13;;;;;;;;;1.00;0.00;;;;;11.49;83.78;99148.69;5036863;28;45381;-51
2021/12/28 03:33:41;;;;;;;;;0.00;0.00;;;;;11.53;83.57;99157.94;5035918;28;45315;-51
2021/12/28 03:36:07;;;;;;;;;1.00;1.00;;;;;11.57;83.36;99153.06;5038401;28;45543;-52
2021/12/28 03:38:35;;;;;;;;;0.00;0.00;;;;;11.60;83.14;99156.19;5040351;28;45360;-53
2021/12/28 03:41:01;;;;;;;;;0.00;0.00;;;;;11.66;83.18;99155.38;5040531;28;45285;-53
2021/12/28 03:43:26;;;;;;;;;0.00;0.00;;;;;11.69;82.89;99165.66;5040123;28;45985;-52
2021/12/28 03:45:52;;;;;;;;;1.00;0.00;;;;;11.72;82.46;99159.16;5040215;28;45274;-51
2021/12/28 03:48:18;;;;;;;;;0.00;0.00;;;;;11.77;82.39;99167.38;5040317;28;45305;-51
2021/12/28 03:50:43;;;;;;;;;2.00;0.33;;;;;11.81;82.47;99167.81;5039277;28;45590;-49
2021/12/28 03:53:09;;;;;;;;;0.00;0.00;;;;;11.84;81.89;99178.09;5039956;28;45436;-52
2021/12/28 03:55:36;;;;;;;;;0.00;0.00;;;;;11.82;81.97;99166.78;5040071;28;45380;-49
2021/12/28 03:58:03;;;;;;;;;2.00;0.00;;;;;11.85;81.35;99175.25;5039930;28;45389;-51
2021/12/28 04:00:33;;;;;;;;;1.00;0.00;;;;;11.85;81.46;99169.94;5040143;28;45502;-50
2021/12/28 04:02:58;;;;;;;;;0.00;0.00;;;;;11.91;81.43;99158.50;5039963;28;46225;-50
2021/12/28 04:05:25;;;;;;;;;0.00;0.00;;;;;11.93;81.09;99171.63;5039707;28;45209;-49
2021/12/28 04:07:50;;;;;;;;;4.00;0.00;;;;;11.94;81.23;99189.25;5039828;28;45428;-51
2021/12/28 04:10:16;;;;;;;;;1.33;0.00;;;;;11.92;81.39;99177.97;5040223;28;45310;-53
2021/12/28 04:12:43;;;;;;;;;0.00;0.00;;;;;11.92;81.39;99186.78;5039742;28;46385;-54
2021/12/28 04:15:13;;;;;;;;;0.00;0.00;;;;;11.94;80.69;99179.44;5039565;28;45364;-54
2021/12/28 04:17:39;;;;;;;;;0.67;0.00;;;;;11.93;81.22;99185.78;5039730;28;45478;-54
2021/12/28 04:20:17;;;;;;;;;0.33;0.00;;;;;11.93;81.37;99187.63;5039925;28;45345;-53
2021/12/28 04:22:43;;;;;;;;;1.00;1.00;;;;;11.96;81.59;99195.22;5039779;28;47377;-51
2021/12/28 04:25:10;;;;;;;;;1.00;1.00;;;;;11.96;80.88;99190.69;5039594;28;45477;-54
2021/12/28 04:27:36;;;;;;;;;2.00;0.67;;;;;11.98;81.12;99187.84;5039927;28;45428;-54
2021/12/28 04:30:07;;;;;;;;;1.33;0.00;;;;;12.01;81.11;99199.97;5039714;28;45365;-54
2021/12/28 04:32:32;;;;;;;;;0.00;0.00;;;;;11.98;81.24;99198.53;5039599;28;47353;-54
2021/12/28 04:34:58;;;;;;;;;0.00;0.00;;;;;11.92;81.20;99201.94;5021846;28;45448;-52
2021/12/28 04:37:23;;;;;;;;;0.00;0.00;;;;;12.03;80.99;99219.25;5039632;28;45401;-51
2021/12/28 04:39:48;;;;;;;;;3.33;0.00;;;;;12.06;81.20;99217.03;5039636;28;45341;-51
2021/12/28 04:42:14;;;;;;;;;0.33;0.00;;;;;12.08;81.01;99214.97;5039322;28;45936;-53
2021/12/28 04:44:39;;;;;;;;;3.00;0.00;;;;;12.10;80.50;99220.16;5039125;28;45416;-51
2021/12/28 04:47:05;;;;;;;;;0.00;0.00;;;;;12.08;80.56;99214.97;5038662;28;45410;-52
2021/12/28 04:49:30;;;;;;;;;0.00;0.00;;;;;12.11;80.61;99201.28;5039678;28;45386;-51
2021/12/28 04:51:56;;;;;;;;;1.00;0.00;;;;;12.12;80.40;99202.09;5039319;28;45445;-53
2021/12/28 04:54:22;;;;;;;;;0.00;0.00;;;;;12.12;80.03;99212.75;5039225;28;45309;-52
2021/12/28 04:56:48;;;;;;;;;0.00;0.00;;;;;12.12;80.36;99212.75;5039308;28;45360;-51
2021/12/28 04:59:15;;;;;;;;;1.00;0.00;;;;;12.13;80.19;99207.22;5021200;28;45511;-52
2021/12/28 05:01:40;;;;;;;;;0.67;0.67;;;;;12.13;80.31;99215.22;5039063;28;45656;-52
2021/12/28 05:04:06;;;;;;;;;2.33;0.00;;;;;12.16;80.16;99208.69;5039197;28;45356;-53
2021/12/28 05:06:34;;;;;;;;;0.00;0.00;;;;;12.16;79.86;99206.03;5039311;28;45333;-50
2021/12/28 05:09:02;;;;;;;;;1.00;0.00;;;;;12.18;79.50;99228.00;5039232;28;45301;-50
2021/12/28 05:11:28;;;;;;;;;0.00;0.00;;;;;12.19;78.84;99235.78;5038740;28;45403;-51
2021/12/28 05:13:54;;;;;;;;;1.00;1.00;;;;;12.21;79.02;99236.41;5038811;28;45252;-51
2021/12/28 05:16:19;;;;;;;;;0.00;0.00;;;;;12.22;78.87;99235.41;5038736;28;45650;-53
2021/12/28 05:18:45;;;;;;;;;3.33;1.00;;;;;12.22;79.20;99231.94;5039011;28;45361;-52
2021/12/28 05:21:10;;;;;;;;;1.00;0.00;;;;;12.24;78.47;99256.53;5038762;28;46908;-52
2021/12/28 05:23:36;;;;;;;;;2.00;0.00;;;;;12.27;78.40;99250.00;5038647;28;45335;-52
2021/12/28 05:26:01;;;;;;;;;0.00;0.00;;;;;12.29;78.30;99262.09;5037415;28;45340;-52
2021/12/28 05:28:26;;;;;;;;;0.33;0.00;;;;;12.30;78.51;99265.59;5038859;28;45385;-53
2021/12/28 05:30:52;;;;;;;;;0.67;0.00;;;;;12.30;77.82;99265.59;5038606;28;45634;-53
2021/12/28 05:33:18;;;;;;;;;0.00;0.00;;;;;12.18;78.60;99258.16;5038603;28;45314;-54
2021/12/28 05:35:44;;;;;;;;;1.00;0.00;;;;;12.30;78.82;99273.59;5038572;28;45263;-53
2021/12/28 05:38:11;;;;;;;;;2.00;0.00;;;;;12.28;77.93;99265.78;5038993;28;45239;-51
2021/12/28 05:40:37;;;;;;;;;0.00;0.00;;;;;12.33;78.21;99287.38;5037922;28;45376;-51
2021/12/28 05:43:03;;;;;;;;;1.00;0.00;;;;;12.32;77.38;99277.72;5038465;28;45397;-53
2021/12/28 05:45:28;;;;;;;;;1.00;0.00;;;;;12.33;78.02;99279.38;5038526;28;45346;-53
2021/12/28 05:47:53;;;;;;;;;0.00;0.00;;;;;12.35;77.71;99276.53;5038778;28;45313;-52
2021/12/28 05:50:19;;;;;;;;;0.00;0.00;;;;;12.27;77.07;99269.50;5038220;28;45342;-53
2021/12/28 05:52:44;;;;;;;;;0.00;0.00;;;;;12.35;76.72;99289.84;5037911;28;45357;-51
2021/12/28 05:55:10;;;;;;;;;5.33;1.00;;;;;12.36;76.79;99296.84;5038434;28;45266;-54
2021/12/28 05:57:35;;;;;;;;;2.33;0.00;;;;;12.36;76.76;99299.50;5020780;28;45548;-53
2021/12/28 06:00:03;;;;;;;;;3.00;0.00;;;;;12.36;76.58;99286.97;5038101;28;45558;-53
2021/12/28 06:02:28;;;;;;;;;1.00;0.00;;;;;12.37;76.28;99285.13;5020227;28;45290;-53
2021/12/28 06:04:54;;;;;;;;;2.67;1.00;;;;;12.37;76.65;99291.28;5038210;28;45334;-52
2021/12/28 06:07:19;;;;;;;;;1.00;0.00;;;;;12.29;76.58;99283.44;5038418;28;45302;-53
2021/12/28 06:09:44;;;;;;;;;1.00;1.00;;;;;12.41;76.40;99305.88;5037936;28;46307;-53
2021/12/28 06:12:10;;;;;;;;;1.33;1.00;;;;;12.42;76.17;99317.38;5037793;28;45384;-53
2021/12/28 06:14:36;;;;;;;;;1.00;1.00;;;;;12.43;76.01;99321.69;5038256;28;45330;-53
2021/12/28 06:17:01;;;;;;;;;0.00;0.00;;;;;12.45;75.81;99322.34;5037916;28;45397;-54
2021/12/28 06:19:26;;;;;;;;;0.33;0.33;;;;;12.45;76.01;99325.81;5037615;28;45981;-53
2021/12/28 06:21:52;;;;;;;;;1.00;1.00;;;;;12.46;75.41;99326.63;5019794;28;45330;-54
2021/12/28 06:24:17;;;;;;;;;2.00;0.00;;;;;12.43;75.08;99325.19;5037745;28;45239;-52
2021/12/28 06:26:43;;;;;;;;;2.00;1.00;;;;;12.45;75.29;99336.50;5020002;28;45361;-53
2021/12/28 06:29:08;;;;;;;;;2.00;0.33;;;;;12.44;75.77;99339.34;5037577;28;45823;-54
2021/12/28 06:31:34;;;;;;;;;2.00;1.00;;;;;12.42;75.80;99341.38;5037346;28;45241;-53
2021/12/28 06:34:02;;;;;;;;;2.00;1.67;;;;;12.43;75.35;99356.34;5037847;28;45232;-50
2021/12/28 06:36:29;;;;;;;;;0.00;0.00;;;;;12.43;75.04;99367.03;5037836;28;45395;-50
2021/12/28 06:38:55;;;;;;;;;0.00;0.00;;;;;12.36;75.57;99363.50;5037386;28;46500;-53
2021/12/28 06:41:20;;;;;;;;;4.00;1.00;;;;;12.17;74.99;99352.44;5037270;28;45271;-53
2021/12/28 06:43:47;;;;;;;;;0.33;0.33;;;;;12.14;75.35;99370.69;5037711;28;45404;-52
2021/12/28 06:46:13;;;;;;;;;1.00;0.00;;;;;12.14;75.49;99394.69;5037701;28;45377;-53
2021/12/28 06:48:39;;;;;;;;;2.00;0.00;;;;;12.08;75.40;99390.91;5037376;28;45412;-52
2021/12/28 06:51:06;;;;;;;;;4.00;0.00;;;;;12.03;75.11;99376.50;5037409;28;45452;-52
2021/12/28 06:53:31;;;;;;;;;4.00;1.00;;;;;11.96;75.24;99398.56;5036934;28;45338;-52
2021/12/28 06:55:57;;;;;;;;;1.00;0.00;;;;;11.92;75.15;99405.28;5037542;28;45433;-53
2021/12/28 06:58:22;;;;;;;;;3.67;1.00;;;;;11.90;75.44;99401.19;5037335;28;46197;-53
2021/12/28 07:00:48;;;;;;;;;5.00;2.00;;;;;11.90;75.02;99404.66;5037021;28;45432;-51
2021/12/28 07:03:13;;;;;;;;;2.67;0.00;;;;;11.94;75.35;99394.47;5037666;28;45332;-52
2021/12/28 07:05:38;;;;;;;;;1.33;1.00;;;;;11.95;75.68;99393.44;5037413;28;45336;-51
2021/12/28 07:08:04;;;;;;;;;6.33;1.00;;;;;11.95;75.61;99402.25;5037234;28;46343;-54
2021/12/28 07:10:30;;;;;;;;;0.00;0.00;;;;;11.97;76.32;99400.25;5036485;28;45573;-53
2021/12/28 07:12:55;;;;;;;;;3.00;0.33;;;;;12.03;75.97;99401.31;5037186;28;45722;-49
2021/12/28 07:15:21;;;;;;;;;0.33;0.33;;;;;11.99;74.64;99398.19;5037359;28;45440;-53
2021/12/28 07:17:48;;;;;;;;;2.33;1.00;;;;;12.11;74.25;99405.72;5036719;28;46668;-53
2021/12/28 07:20:14;;;;;;;;;2.00;1.00;;;;;12.08;74.22;99388.25;5036906;28;45374;-53
2021/12/28 07:22:40;;;;;;;;;2.00;1.00;;;;;12.08;75.02;99388.25;5037139;28;45312;-53
2021/12/28 07:25:07;;;;;;;;;2.00;2.00;;;;;12.11;74.80;99387.88;5037328;28;45227;-53
2021/12/28 07:27:32;;;;;;;;;1.33;1.33;;;;;12.19;74.45;99402.94;5036895;28;47074;-53
2021/12/28 07:29:57;;;;;;;;;1.00;1.00;;;;;12.18;73.71;99412.75;5036696;28;45837;-53
2021/12/28 07:32:23;;;;;;;;;3.33;1.00;;;;;12.23;74.74;99422.84;5036799;28;45364;-53
2021/12/28 07:34:49;;;;;;;;;1.00;1.00;;;;;12.23;73.60;99422.84;5037336;28;45414;-52
2021/12/28 07:37:14;;;;;;;;;2.00;1.00;;;;;12.22;74.03;99415.88;5036629;28;45537;-52
2021/12/28 07:39:40;;;;;;;;;3.67;0.00;;;;;12.25;74.61;99418.16;5036799;28;45378;-52
2021/12/28 07:42:05;;;;;;;;;3.00;1.00;;;;;12.23;73.98;99417.53;5036723;28;45333;-52
2021/12/28 07:44:31;;;;;;;;;2.00;2.00;;;;;12.26;74.31;99426.97;5036861;28;45411;-55
2021/12/28 07:46:57;;;;;;;;;3.33;1.00;;;;;12.29;74.32;99439.94;5036613;28;45326;-54
2021/12/28 07:49:22;;;;;;;;;1.00;1.00;;;;;12.28;73.87;99440.94;5036746;28;45436;-53
2021/12/28 07:51:48;;;;;;;;;5.33;2.00;;;;;12.31;74.20;99441.41;5036653;28;45250;-54
2021/12/28 07:54:14;;;;;;;;;1.67;1.00;;;;;12.31;74.22;99456.59;5036728;28;45223;-53
2021/12/28 07:56:39;;;;;;;;;5.33;2.00;;;;;12.23;73.64;99449.53;5036609;28;45944;-52
2021/12/28 07:59:05;;;;;;;;;0.33;0.00;;;;;12.31;74.25;99467.25;5036664;28;45227;-51
2021/12/28 08:01:34;;;;;;;;;2.00;1.00;;;;;12.33;74.65;99470.53;5036604;28;45537;-53
2021/12/28 08:04:00;;;;;;;;;1.00;0.00;;;;;12.34;73.64;99473.00;5036713;28;45544;-53
2021/12/28 08:06:26;;;;;;;;;1.33;1.00;;;;;12.34;74.65;99466.84;5036321;28;45353;-52
2021/12/28 08:08:51;;;;;;;;;1.67;1.00;;;;;12.33;73.74;99475.88;5036350;28;45299;-52
2021/12/28 08:11:17;;;;;;;;;3.33;1.00;;;;;12.37;74.46;99479.81;5036427;28;45901;-51
2021/12/28 08:13:42;;;;;;;;;3.67;1.00;;;;;12.38;74.59;99495.59;5036806;28;45236;-54
2021/12/28 08:16:08;;;;;;;;;1.00;1.00;;;;;12.36;74.89;99481.66;5018167;28;46202;-53
2021/12/28 08:18:33;;;;;;;;;3.00;1.67;;;;;12.34;75.62;99480.19;5036199;28;45381;-54
2021/12/28 08:20:59;;;;;;;;;2.67;0.00;;;;;12.36;75.55;99489.66;5036463;28;45374;-53
2021/12/28 08:23:24;;;;;;;;;3.00;0.00;;;;;12.32;75.45;99482.22;5038713;28;45257;-52
2021/12/28 08:25:50;;;;;;;;;0.00;0.00;;;;;12.38;76.40;99519.59;5039704;28;45234;-55
2021/12/28 08:28:16;;;;;;;;;1.00;0.00;;;;;12.37;76.28;99514.47;5039591;28;45168;-51
2021/12/28 08:30:41;;;;;;;;;0.00;0.00;;;;;12.32;77.95;99514.22;5039474;28;45290;-54
2021/12/28 08:33:09;;;;;;;;;6.00;1.67;;;;;12.29;78.59;99511.91;5039579;28;45432;-51
2021/12/28 08:35:36;;;;;;;;;3.00;1.00;;;;;12.29;78.50;99517.25;5039559;28;46219;-53
2021/12/28 08:38:02;;;;;;;;;1.67;0.00;;;;;12.27;79.40;99516.63;5039237;28;45325;-52
2021/12/28 08:40:27;;;;;;;;;2.00;0.00;;;;;12.24;79.77;99531.16;5039361;28;45235;-53
2021/12/28 08:42:53;;;;;;;;;2.33;1.00;;;;;12.24;80.33;99534.63;5039751;28;45563;-52
2021/12/28 08:45:19;;;;;;;;;2.00;0.33;;;;;12.27;79.82;99549.44;5039104;28;45949;-50
2021/12/28 08:47:46;;;;;;;;;3.67;1.00;;;;;12.25;79.88;99543.47;5039420;28;45310;-50
2021/12/28 08:50:12;;;;;;;;;2.33;1.67;;;;;12.21;80.39;99545.66;5039149;28;45206;-53
2021/12/28 08:52:38;;;;;;;;;1.00;1.00;;;;;12.19;80.08;99550.38;5039474;28;45376;-51
2021/12/28 08:55:05;;;;;;;;;3.00;0.00;;;;;12.22;79.54;99560.69;5039206;28;46334;-49
2021/12/28 08:57:31;;;;;;;;;2.00;0.33;;;;;12.11;79.49;99534.47;5038789;28;45449;-53
2021/12/28 08:59:57;;;;;;;;;4.00;1.00;;;;;12.23;79.67;99559.66;5039097;28;45232;-52
2021/12/28 09:02:22;;;;;;;;;0.00;0.00;;;;;12.23;79.67;99551.66;5038765;28;45270;-52
2021/12/28 09:04:48;;;;;;;;;1.00;1.00;;;;;12.23;79.29;99549.00;5038563;28;46139;-53
2021/12/28 09:07:14;;;;;;;;;3.00;1.00;;;;;12.26;79.23;99554.94;5038731;28;45457;-51
2021/12/28 09:09:40;;;;;;;;;4.33;1.33;;;;;12.20;78.84;99540.53;5038885;28;46057;-53
2021/12/28 09:12:06;;;;;;;;;3.33;1.00;;;;;12.29;79.11;99555.41;5038896;28;45258;-54
2021/12/28 09:14:32;;;;;;;;;2.00;1.67;;;;;12.18;78.85;99530.06;5038286;28;46292;-52
2021/12/28 09:16:58;;;;;;;;;1.67;1.00;;;;;12.31;78.27;99555.25;5038214;28;45414;-52
2021/12/28 09:19:24;;;;;;;;;1.67;1.33;;;;;12.31;77.79;99569.41;5034757;28;45323;-54
2021/12/28 09:21:49;;;;;;;;;2.00;2.00;;;;;12.32;77.80;99562.22;5038671;28;45383;-55
2021/12/28 09:24:15;;;;;;;;;1.67;1.00;;;;;12.33;76.51;99564.69;5038120;28;46093;-54
2021/12/28 09:26:40;;;;;;;;;2.67;1.00;;;;;12.34;75.22;99550.34;5036972;28;45325;-52
2021/12/28 09:29:05;;;;;;;;;6.33;0.00;;;;;12.34;73.57;99549.50;5038337;28;45812;-52
2021/12/28 09:31:33;;;;;;;;;8.00;0.33;;;;;12.34;74.39;99566.34;5038630;28;45465;-53
2021/12/28 09:33:58;;;;;;;;;26.33;20.00;;;;;12.35;73.21;99567.19;5037459;28;46488;-51
2021/12/28 09:36:24;;;;;;;;;1.00;1.00;;;;;12.38;73.54;99570.28;5038344;28;45479;-53
2021/12/28 09:38:49;;;;;;;;;5.67;3.00;;;;;12.38;73.10;99564.94;5038216;28;45284;-55
2021/12/28 09:41:15;;;;;;;;;2.00;0.00;;;;;12.41;73.49;99550.44;5038738;28;45352;-54
2021/12/28 09:43:41;;;;;;;;;2.67;1.00;;;;;12.40;71.44;99562.94;5038084;28;46291;-52
2021/12/28 09:46:07;;;;;;;;;1.00;0.00;;;;;12.43;73.34;99567.06;5038103;28;45299;-53
2021/12/28 09:48:34;;;;;;;;;4.33;1.67;;;;;12.43;69.94;99580.38;5038311;28;45448;-51
2021/12/28 09:51:00;;;;;;;;;3.00;0.00;;;;;12.43;72.45;99570.56;5038428;28;45284;-53
2021/12/28 09:53:26;;;;;;;;;2.33;0.00;;;;;12.46;69.59;99577.34;5038299;28;45445;-52
2021/12/28 09:55:52;;;;;;;;;0.33;0.33;;;;;12.47;70.22;99579.84;5038133;28;45231;-53
2021/12/28 09:58:17;;;;;;;;;2.67;1.00;;;;;12.49;68.66;99577.00;5040006;28;46035;-50
2021/12/28 10:00:43;;;;;;;;;1.33;1.00;;;;;12.50;68.03;99583.97;5044092;28;45221;-53
2021/12/28 10:03:08;;;;;;;;;2.67;1.00;;;;;12.51;66.71;99596.28;5043735;28;45360;-51
2021/12/28 10:05:34;;;;;;;;;5.67;2.00;;;;;12.52;66.45;99600.63;5042258;28;45501;-53
2021/12/28 10:08:02;;;;;;;;;1.67;1.33;;;;;12.52;66.84;99592.63;5041577;28;45178;-52
2021/12/28 10:10:31;;;;;;;;;7.33;1.00;;;;;12.58;68.32;99601.72;5041480;28;45377;-53
2021/12/28 10:13:06;;;;;;;;;6.33;2.33;;;;;12.59;67.20;99614.84;5042351;28;46630;-52
2021/12/28 10:15:35;;;;;;;;;8.00;1.00;;;;;12.51;64.58;99580.28;5042020;28;45361;-50
2021/12/28 10:18:03;;;;;;;;;3.00;1.00;;;;;12.63;67.25;99600.13;5039576;28;45440;-53
2021/12/28 10:20:38;;;;;;;;;2.67;2.00;;;;;12.62;66.30;99609.16;5037697;28;45394;-52
2021/12/28 10:23:10;;;;;;;;;6.00;2.00;;;;;12.65;64.92;99618.63;5037316;28;47335;-54
2021/12/28 10:25:40;;;;;;;;;7.00;2.67;;;;;12.64;64.91;99615.13;5037358;28;45402;-55
2021/12/28 10:28:18;;;;;;;;;1.67;1.33;;;;;12.66;66.69;99630.94;5037554;28;45362;-54
2021/12/28 10:30:50;;;;;;;;;1.00;1.00;;;;;12.60;66.10;99618.34;5037741;28;45410;-54
2021/12/28 10:33:18;;;;;;;;;3.67;3.00;;;;;12.64;64.67;99612.47;5037502;28;46314;-54
2021/12/28 10:35:56;;;;;;;;;2.33;1.00;;;;;12.68;64.42;99629.75;5037385;28;45256;-50
2021/12/28 10:38:24;;;;;;;;;7.00;0.67;;;;;12.68;63.61;99618.22;5037643;28;45501;-54
2021/12/28 10:41:08;;;;;;;;;2.00;2.00;;;;;12.68;63.20;99629.75;5037799;28;45267;-53
2021/12/28 10:43:37;;;;;;;;;6.00;2.00;;;;;12.70;63.85;99622.38;5037471;28;47318;-52
2021/12/28 10:46:09;;;;;;;;;8.33;4.00;;;;;12.74;63.90;99644.19;5036628;28;45226;-53
2021/12/28 10:48:41;;;;;;;;;6.00;1.33;;;;;12.71;63.03;99628.53;5037336;28;45458;-53
2021/12/28 10:51:10;;;;;;;;;4.67;2.00;;;;;12.79;64.59;99644.44;5037482;28;45430;-53
2021/12/28 10:53:49;;;;;;;;;9.00;3.00;;;;;12.82;63.46;99617.38;5037100;28;46566;-53
2021/12/28 10:56:15;;;;;;;;;4.33;1.67;;;;;12.76;62.84;99615.44;5037201;28;45365;-53
2021/12/28 10:58:46;;;;;;;;;6.00;2.33;;;;;12.88;63.85;99629.13;5037264;28;45387;-53
2021/12/28 11:01:18;;;;;;;;;4.00;4.00;;;;;12.90;63.42;99646.63;5037663;28;45503;-53
2021/12/28 11:03:47;;;;;;;;;8.00;4.33;;;;;12.90;62.06;99629.78;5036953;28;45512;-51
2021/12/28 11:06:15;;;;;;;;;1.33;1.00;;;;;12.92;61.70;99641.09;5037037;28;45385;-53
2021/12/28 11:08:43;;;;;;;;;7.00;3.00;;;;;12.95;64.20;99651.41;5037333;28;45307;-51
2021/12/28 11:11:11;;;;;;;;;6.00;2.00;;;;;12.96;62.92;99661.88;5037111;28;45342;-54
2021/12/28 11:13:37;;;;;;;;;8.33;3.33;;;;;12.97;61.73;99649.34;5036891;28;46061;-52
2021/12/28 11:16:06;;;;;;;;;6.00;3.67;;;;;13.12;61.74;99652.00;5037099;28;45317;-54
2021/12/28 11:18:35;;;;;;;;;6.00;2.67;;;;;13.31;62.30;99645.22;5036466;28;46383;-54
2021/12/28 11:21:24;;;;;;;;;9.67;2.00;;;;;13.50;62.57;99657.94;5037099;28;45433;-54
2021/12/28 11:23:53;;;;;;;;;6.33;2.67;;;;;13.60;61.31;99663.75;5036701;28;45898;-53
2021/12/28 11:26:25;;;;;;;;;6.67;3.00;;;;;13.64;62.33;99677.56;5036997;28;45334;-51
2021/12/28 11:29:03;;;;;;;;;9.33;3.00;;;;;13.84;61.96;99675.88;5036605;28;45296;-51
2021/12/28 11:31:50;;;;;;;;;1.67;1.00;;;;;15.40;58.36;99668.19;5036892;28;45451;-53
2021/12/28 11:34:25;;;;;;;;;4.00;1.00;;;;;17.01;52.60;99665.84;5035137;28;47554;-53